Terminal Aerodrome Forecast
Issued by NWS

Home | Current Version | Previous Version | Text Only | Print | Product List | Glossary On
Versions: 1 2 3 4 5 6 7 8 9 10 11 12 13 14 15 16 17 18 19 20 21 22 23 24 25 26 27 28 29 30 31 32 33 34 35 36 37 38 39 40 41
000
FTUS41 KOKX 220528
TAFGON
TAF
KGON 220528Z 2206/2306 VRB02KT 1/4SM FG VV002
      TEMPO 2206/2210 VV001
     FM221600 07008KT 2SM BR OVC005
     FM221800 07011KT 4SM BR BKN009 OVC015
     FM230000 05014G22KT 5SM BR OVC010
     FM230400 05019G28KT 4SM -RA BR OVC008=

USA.gov is the U.S. government's official web portal to all federal, state and local government web resources and services.